createdAt,value
2019-01-14T00:02:04.982Z,6.02
2019-01-14T00:04:33.655Z,5.95
2019-01-14T00:07:02.198Z,5.88
2019-01-14T00:09:31.449Z,5.86
2019-01-14T00:12:00.167Z,5.80
2019-01-14T00:14:28.765Z,5.78
2019-01-14T00:16:57.366Z,5.77
2019-01-14T00:19:26.116Z,5.79
2019-01-14T00:21:54.640Z,5.84
2019-01-14T00:24:23.354Z,5.82
2019-01-14T00:26:52.367Z,5.79
2019-01-14T00:29:21.365Z,5.77
2019-01-14T00:31:50.050Z,5.70
2019-01-14T00:34:19.087Z,5.79
2019-01-14T00:36:48.038Z,5.78
2019-01-14T00:39:16.678Z,5.70
2019-01-14T00:41:45.218Z,5.76
2019-01-14T00:44:13.805Z,5.74
2019-01-14T00:46:42.343Z,5.68
2019-01-14T00:49:10.938Z,5.67
2019-01-14T00:51:39.435Z,5.68
2019-01-14T00:54:07.981Z,5.61
2019-01-14T00:56:36.866Z,5.63
2019-01-14T00:59:05.914Z,5.68
2019-01-14T01:01:34.484Z,5.62
2019-01-14T01:04:03.314Z,5.60
2019-01-14T01:06:31.899Z,5.57
2019-01-14T01:09:00.873Z,5.55
2019-01-14T01:11:29.454Z,5.54
2019-01-14T01:13:58.007Z,5.49
2019-01-14T01:16:26.511Z,5.51
2019-01-14T01:18:55.148Z,5.41
2019-01-14T01:21:24.058Z,5.42
2019-01-14T01:23:52.654Z,5.38
2019-01-14T01:26:21.175Z,5.37
2019-01-14T01:28:50.191Z,5.32
2019-01-14T01:31:18.702Z,5.23
2019-01-14T01:33:47.292Z,5.32
2019-01-14T01:36:15.811Z,5.30
2019-01-14T01:38:44.377Z,5.29
2019-01-14T01:41:12.880Z,5.24
2019-01-14T01:43:41.457Z,5.25
2019-01-14T01:46:09.979Z,5.10
2019-01-14T01:48:38.610Z,5.06
2019-01-14T01:51:07.108Z,5.02
2019-01-14T01:53:35.715Z,5.01
2019-01-14T01:56:04.485Z,5.02
2019-01-14T01:58:33.081Z,4.96
2019-01-14T02:01:01.938Z,4.99
2019-01-14T02:03:30.522Z,4.98
2019-01-14T02:05:59.028Z,4.99
2019-01-14T02:08:27.594Z,4.97
2019-01-14T02:10:56.116Z,4.95
2019-01-14T02:13:24.688Z,4.90
2019-01-14T02:15:53.479Z,4.94
2019-01-14T02:18:22.033Z,4.97
2019-01-14T02:20:50.533Z,4.99
2019-01-14T02:23:19.138Z,4.92
2019-01-14T02:25:47.943Z,4.94
2019-01-14T02:28:16.538Z,4.91
2019-01-14T02:30:45.063Z,4.98
2019-01-14T02:33:13.660Z,4.98
2019-01-14T02:35:42.582Z,5.01
2019-01-14T02:38:11.213Z,4.96
2019-01-14T02:40:39.719Z,4.99
2019-01-14T02:43:08.266Z,4.94
2019-01-14T02:45:36.797Z,4.96
2019-01-14T02:48:05.383Z,4.94
2019-01-14T02:50:33.917Z,4.90
2019-01-14T02:53:02.528Z,4.89
2019-01-14T02:55:31.082Z,4.92
2019-01-14T02:57:59.633Z,4.92
2019-01-14T03:00:28.444Z,4.88
2019-01-14T03:02:57.282Z,4.77
2019-01-14T03:05:26.203Z,4.82
2019-01-14T03:07:54.772Z,4.83
2019-01-14T03:10:23.674Z,4.85
2019-01-14T03:12:52.345Z,4.86
2019-01-14T03:15:21.039Z,4.81
2019-01-14T03:17:49.617Z,4.82
2019-01-14T03:20:18.250Z,4.79
2019-01-14T03:22:47.044Z,4.74
2019-01-14T03:25:16.029Z,4.74
2019-01-14T03:27:44.961Z,4.74
2019-01-14T03:30:15.852Z,4.73
2019-01-14T03:32:44.691Z,4.65
2019-01-14T03:35:13.362Z,4.67
2019-01-14T03:37:41.926Z,4.67
2019-01-14T03:40:13.288Z,4.60
2019-01-14T03:42:42.228Z,4.54
2019-01-14T03:45:12.289Z,4.58
2019-01-14T03:47:41.342Z,4.54
2019-01-14T03:50:16.374Z,4.54
2019-01-14T03:52:45.018Z,4.49
2019-01-14T03:55:13.867Z,4.43
2019-01-14T03:57:43.449Z,4.44
2019-01-14T04:00:14.437Z,4.35
2019-01-14T04:02:43.079Z,4.36
2019-01-14T04:05:11.712Z,4.23
2019-01-14T04:07:40.325Z,4.37
2019-01-14T04:10:14.835Z,4.30
2019-01-14T04:12:43.562Z,4.31
2019-01-14T04:15:15.305Z,4.21
2019-01-14T04:17:44.991Z,4.19
2019-01-14T04:20:19.589Z,4.15
2019-01-14T04:22:48.451Z,4.03
2019-01-14T04:25:17.324Z,3.96
2019-01-14T04:27:45.959Z,3.84
2019-01-14T04:30:22.334Z,3.77
2019-01-14T04:32:51.455Z,3.68
2019-01-14T04:35:20.417Z,3.52
2019-01-14T04:37:49.070Z,3.43
2019-01-14T04:40:17.644Z,3.39
2019-01-14T04:42:46.254Z,3.28
2019-01-14T04:45:15.969Z,3.26
2019-01-14T04:47:44.564Z,3.23
2019-01-14T04:50:16.057Z,3.21
2019-01-14T04:52:45.055Z,3.11
2019-01-14T04:55:13.679Z,3.09
2019-01-14T05:00:06.820Z,3.07
2019-01-14T05:02:35.450Z,2.99
2019-01-14T05:05:06.493Z,2.91
2019-01-14T05:07:35.082Z,2.89
2019-01-14T05:10:08.892Z,2.95
2019-01-14T05:12:37.470Z,3.04
2019-01-14T05:15:09.416Z,3.11
2019-01-14T05:17:38.387Z,3.13
2019-01-14T05:20:10.131Z,3.18
2019-01-14T05:22:39.135Z,3.16
2019-01-14T05:25:08.673Z,3.18
2019-01-14T05:27:37.255Z,3.15
2019-01-14T05:30:11.829Z,3.16
2019-01-14T05:32:40.417Z,3.27
2019-01-14T05:35:09.970Z,3.28
2019-01-14T05:37:38.532Z,3.33
2019-01-14T05:40:19.565Z,3.33
2019-01-14T05:42:48.088Z,3.36
2019-01-14T05:45:16.773Z,3.27
2019-01-14T05:47:45.321Z,3.24
2019-01-14T05:50:15.383Z,3.21
2019-01-14T05:52:43.990Z,3.25
2019-01-14T05:55:13.746Z,3.15
2019-01-14T05:57:42.298Z,3.10
2019-01-14T06:00:19.779Z,3.04
2019-01-14T06:02:48.822Z,3.00
2019-01-14T06:05:17.337Z,3.00
2019-01-14T06:07:45.919Z,2.90
2019-01-14T06:10:14.524Z,2.82
2019-01-14T06:12:43.129Z,2.79
2019-01-14T06:15:14.280Z,2.76
2019-01-14T06:17:42.929Z,2.76
2019-01-14T06:20:18.101Z,2.74
2019-01-14T06:22:46.730Z,2.69
2019-01-14T06:25:15.714Z,2.71
2019-01-14T06:27:44.349Z,2.69
2019-01-14T06:30:24.968Z,2.67
2019-01-14T06:32:54.945Z,2.66
2019-01-14T06:35:23.836Z,2.63
2019-01-14T06:37:52.812Z,2.60
2019-01-14T06:40:22.065Z,2.60
2019-01-14T06:42:50.659Z,2.56
2019-01-14T06:45:19.241Z,2.55
2019-01-14T06:47:48.276Z,2.54
2019-01-14T06:50:19.458Z,2.58
2019-01-14T06:52:48.104Z,2.62
2019-01-14T06:55:18.181Z,2.66
2019-01-14T06:57:46.881Z,2.73
2019-01-14T07:00:20.842Z,2.68
2019-01-14T07:02:49.543Z,2.76
2019-01-14T07:05:18.385Z,2.72
2019-01-14T07:07:47.007Z,2.73
2019-01-14T07:10:24.281Z,2.70
2019-01-14T07:12:52.916Z,2.64
2019-01-14T07:15:21.851Z,2.68
2019-01-14T07:17:50.457Z,2.59
2019-01-14T07:20:19.844Z,2.60
2019-01-14T07:22:48.848Z,2.63
2019-01-14T07:25:17.532Z,2.64
2019-01-14T07:27:46.199Z,2.63
2019-01-14T07:30:19.730Z,2.61
2019-01-14T07:32:48.496Z,2.67
2019-01-14T07:35:17.351Z,2.65
2019-01-14T07:37:46.361Z,2.60
2019-01-14T07:40:17.119Z,2.61
2019-01-14T07:42:45.689Z,2.67
2019-01-14T07:45:16.326Z,2.78
2019-01-14T07:47:45.024Z,2.79
2019-01-14T07:50:24.141Z,2.73
2019-01-14T07:55:37.223Z,2.78
2019-01-14T07:58:09.068Z,2.51
2019-01-14T08:00:39.656Z,2.55
2019-01-14T08:03:08.212Z,2.62
2019-01-14T08:05:37.166Z,2.64
2019-01-14T08:08:05.724Z,2.65
2019-01-14T08:10:34.654Z,2.70
2019-01-14T08:13:03.303Z,2.77
2019-01-14T08:15:31.887Z,2.77
2019-01-14T08:18:00.469Z,2.69
2019-01-14T08:20:29.015Z,2.76
2019-01-14T08:22:57.630Z,2.80
2019-01-14T08:25:26.540Z,2.83
2019-01-14T08:27:55.524Z,2.88
2019-01-14T08:30:24.924Z,2.85
2019-01-14T08:32:53.771Z,2.82
2019-01-14T08:35:22.670Z,2.85
2019-01-14T08:37:51.409Z,2.84
2019-01-14T08:40:21.295Z,2.82
2019-01-14T08:42:50.183Z,2.79
2019-01-14T08:45:19.060Z,2.78
2019-01-14T08:47:47.689Z,2.86
2019-01-14T08:50:18.089Z,2.86
2019-01-14T08:52:46.772Z,2.92
2019-01-14T08:55:15.384Z,2.92
2019-01-14T08:57:43.967Z,2.91
2019-01-14T09:00:15.811Z,2.94
2019-01-14T09:02:44.521Z,2.85
2019-01-14T09:05:13.217Z,2.81
2019-01-14T09:07:41.931Z,2.76
2019-01-14T09:10:16.337Z,2.70
2019-01-14T09:12:45.079Z,2.72
2019-01-14T09:15:16.885Z,2.63
2019-01-14T09:17:45.591Z,2.67
2019-01-14T09:20:16.662Z,2.56
2019-01-14T09:22:45.341Z,2.79
2019-01-14T09:25:13.928Z,2.89
2019-01-14T09:27:42.638Z,2.94
2019-01-14T09:30:17.217Z,2.94
2019-01-14T09:32:46.029Z,3.02
2019-01-14T09:35:14.583Z,3.15
2019-01-14T09:37:43.233Z,3.18
2019-01-14T09:40:15.889Z,3.18
2019-01-14T09:42:44.554Z,3.20
2019-01-14T09:45:13.377Z,3.16
2019-01-14T09:47:42.164Z,3.29
2019-01-14T09:50:13.278Z,3.45
2019-01-14T09:52:42.096Z,3.29
2019-01-14T09:55:16.028Z,3.36
2019-01-14T09:57:46.567Z,3.76
2019-01-14T10:00:15.355Z,3.74
2019-01-14T10:02:44.502Z,3.55
2019-01-14T10:05:16.991Z,3.70
2019-01-14T10:07:46.401Z,4.02
2019-01-14T10:10:16.892Z,4.49
2019-01-14T10:12:45.642Z,4.55
2019-01-14T10:15:19.506Z,4.59
2019-01-14T10:17:50.300Z,4.40
2019-01-14T10:20:18.944Z,4.59
2019-01-14T10:22:47.628Z,5.48
2019-01-14T10:25:16.235Z,5.41
2019-01-14T10:27:44.840Z,5.31
2019-01-14T10:30:18.484Z,5.43
2019-01-14T10:32:47.717Z,5.59
2019-01-14T10:35:16.355Z,7.82
2019-01-14T10:37:45.057Z,9.26
2019-01-14T10:40:17.439Z,10.38
2019-01-14T10:42:46.147Z,10.26
2019-01-14T10:45:20.260Z,8.73
2019-01-14T10:47:49.162Z,8.91
2019-01-14T10:50:18.099Z,9.36
2019-01-14T10:52:46.809Z,7.08
2019-01-14T10:55:16.114Z,6.14
2019-01-14T10:57:45.700Z,7.22
2019-01-14T11:00:19.705Z,7.99
2019-01-14T11:02:50.591Z,7.99
2019-01-14T11:05:23.500Z,8.09
2019-01-14T11:07:52.508Z,8.14
2019-01-14T11:10:21.443Z,6.23
2019-01-14T11:12:50.692Z,5.64
2019-01-14T11:15:21.649Z,6.12
2019-01-14T11:17:50.517Z,5.51
2019-01-14T11:20:24.971Z,4.91
2019-01-14T11:22:53.865Z,4.53
2019-01-14T11:25:22.493Z,5.72
2019-01-14T11:27:51.935Z,6.24
2019-01-14T11:30:25.832Z,6.33
2019-01-14T11:32:54.495Z,5.09
2019-01-14T11:35:23.199Z,5.43
2019-01-14T11:37:52.028Z,5.46
2019-01-14T11:40:27.233Z,5.99
2019-01-14T11:42:55.975Z,6.63
2019-01-14T11:45:24.474Z,6.06
2019-01-14T11:47:53.230Z,5.07
2019-01-14T11:50:22.430Z,4.84
2019-01-14T11:52:51.259Z,4.34
2019-01-14T11:55:20.680Z,4.20
2019-01-14T11:57:51.702Z,4.10
2019-01-14T12:00:23.289Z,3.96
2019-01-14T12:02:52.520Z,3.95
2019-01-14T12:05:22.185Z,3.87
2019-01-14T12:07:51.292Z,3.70
2019-01-14T12:10:20.103Z,3.69
2019-01-14T12:12:48.815Z,3.71
2019-01-14T12:15:20.524Z,3.74
2019-01-14T12:17:49.713Z,3.75
2019-01-14T12:20:18.539Z,3.78
2019-01-14T12:22:48.566Z,3.87
2019-01-14T12:25:17.150Z,3.73
2019-01-14T12:27:45.888Z,3.80
2019-01-14T12:30:25.493Z,4.00
2019-01-14T12:32:54.253Z,3.75
2019-01-14T12:35:22.832Z,3.88
2019-01-14T12:37:51.675Z,3.92
2019-01-14T12:40:20.544Z,3.69
2019-01-14T12:42:49.337Z,3.79
2019-01-14T12:45:19.760Z,3.87
2019-01-14T12:47:49.031Z,3.95
2019-01-14T12:50:23.375Z,3.77
2019-01-14T12:52:53.645Z,3.80
2019-01-14T12:55:22.544Z,3.62
2019-01-14T12:57:51.413Z,3.61
2019-01-14T13:00:43.958Z,3.67
2019-01-14T13:03:13.106Z,3.61
2019-01-14T13:05:41.752Z,3.60
2019-01-14T13:08:12.232Z,3.61
2019-01-14T13:10:42.684Z,3.64
2019-01-14T13:13:11.413Z,3.67
2019-01-14T13:15:41.350Z,3.43
2019-01-14T13:18:14.458Z,3.47
2019-01-14T13:20:43.403Z,3.64
2019-01-14T13:23:12.078Z,3.45
2019-01-14T13:25:41.181Z,3.48
2019-01-14T13:28:10.872Z,3.39
2019-01-14T13:30:44.353Z,3.90
2019-01-14T13:33:13.474Z,3.22
2019-01-14T13:35:42.357Z,3.20
2019-01-14T13:38:11.928Z,3.01
2019-01-14T13:40:41.759Z,2.94
2019-01-14T13:43:11.078Z,2.92
2019-01-14T13:45:39.931Z,3.07
2019-01-14T13:48:11.423Z,3.14
2019-01-14T13:50:42.237Z,3.21
2019-01-14T13:53:11.172Z,5.46
2019-01-14T13:55:39.838Z,3.26
2019-01-14T13:58:08.601Z,3.27
2019-01-14T14:00:38.033Z,5.33
2019-01-14T14:03:07.384Z,4.19
2019-01-14T14:05:36.065Z,5.30
2019-01-14T14:08:05.157Z,3.53
2019-01-14T14:10:34.143Z,3.55
2019-01-14T14:13:04.217Z,3.15
2019-01-14T14:15:33.027Z,3.00
2019-01-14T14:18:02.234Z,3.19
2019-01-14T14:20:30.815Z,3.13
2019-01-14T14:22:59.763Z,3.69
2019-01-14T14:25:28.502Z,3.12
2019-01-14T14:27:57.550Z,2.96
2019-01-14T14:30:32.631Z,2.74
2019-01-14T14:33:01.800Z,2.78
2019-01-14T14:35:31.025Z,2.73
2019-01-14T14:38:01.638Z,2.62
2019-01-14T14:40:30.519Z,2.60
2019-01-14T14:42:59.356Z,2.46
2019-01-14T14:45:28.553Z,2.37
2019-01-14T14:47:57.963Z,2.32
2019-01-14T14:50:26.843Z,2.26
2019-01-14T14:52:59.438Z,2.27
2019-01-14T14:55:28.193Z,2.24
2019-01-14T14:57:56.862Z,2.24
2019-01-14T15:00:25.841Z,2.17
2019-01-14T15:02:54.606Z,2.13
2019-01-14T15:05:23.396Z,2.11
2019-01-14T15:07:52.050Z,2.09
2019-01-14T15:10:22.799Z,2.06
2019-01-14T15:12:51.635Z,2.05
2019-01-14T15:15:22.408Z,2.00
2019-01-14T15:17:52.406Z,1.92
2019-01-14T15:20:22.747Z,1.92
2019-01-14T15:22:53.143Z,1.84
2019-01-14T15:25:22.129Z,1.85
2019-01-14T15:27:51.136Z,1.81
2019-01-14T15:30:23.121Z,1.78
2019-01-14T15:32:52.174Z,1.86
2019-01-14T15:35:21.533Z,1.75
2019-01-14T15:37:50.610Z,1.66
2019-01-14T15:40:21.194Z,1.70
2019-01-14T15:42:52.958Z,1.62
2019-01-14T15:45:24.622Z,1.58
2019-01-14T15:47:55.503Z,1.57
2019-01-14T15:50:24.386Z,1.62
2019-01-14T15:52:53.495Z,1.54
2019-01-14T15:55:25.800Z,1.55
2019-01-14T15:57:56.737Z,1.53
2019-01-14T16:00:27.442Z,1.47
2019-01-14T16:02:57.712Z,1.44
2019-01-14T16:05:27.184Z,1.34
2019-01-14T16:07:56.832Z,1.42
2019-01-14T16:10:26.583Z,1.38
2019-01-14T16:12:55.376Z,1.35
2019-01-14T16:15:27.047Z,1.39
2019-01-14T16:17:56.097Z,1.37
2019-01-14T16:20:25.791Z,1.36
2019-01-14T16:22:55.316Z,1.40
2019-01-14T16:25:26.448Z,1.34
2019-01-14T16:27:55.546Z,1.35
2019-01-14T16:30:25.108Z,1.29
2019-01-14T16:32:54.300Z,1.25
2019-01-14T16:35:24.079Z,1.23
2019-01-14T16:37:52.908Z,1.21
2019-01-14T16:40:22.216Z,1.27
2019-01-14T16:42:51.869Z,1.30
2019-01-14T16:45:22.934Z,1.28
2019-01-14T16:47:51.959Z,1.28
2019-01-14T16:50:20.933Z,1.17
2019-01-14T16:52:50.399Z,1.24
2019-01-14T16:55:20.790Z,1.25
2019-01-14T16:57:50.635Z,1.26
2019-01-14T17:00:19.606Z,1.13
2019-01-14T17:02:51.370Z,1.08
2019-01-14T17:05:20.062Z,1.03
2019-01-14T17:07:48.848Z,0.99
2019-01-14T17:10:17.483Z,1.13
2019-01-14T17:12:46.180Z,1.03
2019-01-14T17:15:15.431Z,1.06
2019-01-14T17:17:44.294Z,1.08
2019-01-14T17:20:20.037Z,1.01
2019-01-14T17:22:48.806Z,1.04
2019-01-14T17:25:17.511Z,1.00
2019-01-14T17:27:46.913Z,1.01
2019-01-14T17:30:16.730Z,1.06
2019-01-14T17:32:46.449Z,1.08
2019-01-14T17:35:15.691Z,1.04
2019-01-14T17:37:45.446Z,0.99
2019-01-14T17:40:17.091Z,1.09
2019-01-14T17:42:45.897Z,0.95
2019-01-14T17:45:15.756Z,0.96
2019-01-14T17:47:45.087Z,0.93
2019-01-14T17:50:16.533Z,0.92
2019-01-14T17:52:45.436Z,1.03
2019-01-14T17:55:15.444Z,0.96
2019-01-14T17:57:44.307Z,0.97
2019-01-14T18:00:16.331Z,1.01
2019-01-14T18:02:46.224Z,0.96
2019-01-14T18:05:14.956Z,0.99
2019-01-14T18:07:44.116Z,1.05
2019-01-14T18:10:15.472Z,1.02
2019-01-14T18:12:44.862Z,0.99
2019-01-14T18:15:17.903Z,1.00
2019-01-14T18:17:47.142Z,0.94
2019-01-14T18:20:18.053Z,0.96
2019-01-14T18:22:46.973Z,1.00
2019-01-14T18:25:16.639Z,1.00
2019-01-14T18:27:45.507Z,0.97
2019-01-14T18:30:18.759Z,0.91
2019-01-14T18:32:47.728Z,0.99
2019-01-14T18:35:17.603Z,1.03
2019-01-14T18:37:46.702Z,0.99
2019-01-14T18:40:18.814Z,0.97
2019-01-14T18:42:48.818Z,0.99
2019-01-14T18:45:18.789Z,1.06
2019-01-14T18:47:48.677Z,0.99
2019-01-14T18:50:20.249Z,1.05
2019-01-14T18:52:49.270Z,1.00
2019-01-14T18:55:18.179Z,1.04
2019-01-14T18:57:47.280Z,1.00
2019-01-14T19:00:20.919Z,0.98
2019-01-14T19:02:51.103Z,0.99
2019-01-14T19:05:21.314Z,0.97
2019-01-14T19:07:51.031Z,0.85
2019-01-14T19:10:20.926Z,0.93
2019-01-14T19:12:51.116Z,0.96
2019-01-14T19:15:21.544Z,1.02
2019-01-14T19:17:52.765Z,0.97
2019-01-14T19:20:26.479Z,0.81
2019-01-14T19:22:56.014Z,0.96
2019-01-14T19:25:28.144Z,0.90
2019-01-14T19:27:59.389Z,0.87
2019-01-14T19:30:29.890Z,0.94
2019-01-14T19:33:01.842Z,0.85
2019-01-14T19:35:33.648Z,0.99
2019-01-14T19:38:03.262Z,0.95
2019-01-14T19:40:33.290Z,1.06
2019-01-14T19:43:02.945Z,0.92
2019-01-14T19:45:33.167Z,0.83
2019-01-14T19:48:05.577Z,0.92
2019-01-14T19:50:36.584Z,0.93
2019-01-14T19:53:07.254Z,0.92
2019-01-14T19:55:36.499Z,0.97
2019-01-14T19:58:05.978Z,1.00
2019-01-14T20:08:32.864Z,1.05
2019-01-14T20:11:08.998Z,1.04
2019-01-14T20:13:32.202Z,1.08
2019-01-14T20:16:00.908Z,0.98
2019-01-14T20:18:29.483Z,1.11
2019-01-14T20:20:58.113Z,1.04
2019-01-14T20:23:26.663Z,1.09
2019-01-14T20:25:55.379Z,1.09
2019-01-14T20:28:23.973Z,0.90
2019-01-14T20:30:54.742Z,0.76
2019-01-14T20:33:23.354Z,0.83
2019-01-14T20:35:52.006Z,0.93
2019-01-14T20:38:20.597Z,0.94
2019-01-14T20:40:49.171Z,0.98
2019-01-14T20:43:17.813Z,0.89
2019-01-14T20:45:46.399Z,0.79
2019-01-14T20:48:15.020Z,0.87
2019-01-14T20:50:43.597Z,0.75
2019-01-14T20:53:13.826Z,0.78
2019-01-14T20:55:42.791Z,0.79
2019-01-14T20:58:11.447Z,0.64
2019-01-14T21:00:40.484Z,0.69
2019-01-14T21:03:10.005Z,0.64
2019-01-14T21:05:38.702Z,0.57
2019-01-14T21:08:07.336Z,0.57
2019-01-14T21:10:35.917Z,0.63
2019-01-14T21:13:04.729Z,0.56
2019-01-14T21:15:33.361Z,0.61
2019-01-14T21:18:01.988Z,0.66
2019-01-14T21:20:30.610Z,0.61
2019-01-14T21:22:59.221Z,0.60
2019-01-14T21:25:27.766Z,0.63
2019-01-14T21:27:56.452Z,0.68
2019-01-14T21:30:25.871Z,0.61
2019-01-14T21:32:54.542Z,0.57
2019-01-14T21:35:23.112Z,0.73
2019-01-14T21:37:52.171Z,0.65
2019-01-14T21:40:20.736Z,0.60
2019-01-14T21:42:49.356Z,0.69
2019-01-14T21:45:18.003Z,0.73
2019-01-14T21:47:46.650Z,0.68
2019-01-14T21:50:19.925Z,0.66
2019-01-14T21:52:48.635Z,0.69
2019-01-14T21:55:22.210Z,0.67
2019-01-14T21:57:50.826Z,0.73
2019-01-14T22:00:21.329Z,0.65
2019-01-14T22:02:49.964Z,0.66
2019-01-14T22:05:18.518Z,0.81
2019-01-14T22:07:47.181Z,0.89
2019-01-14T22:10:18.199Z,0.92
2019-01-14T22:12:46.885Z,1.01
2019-01-14T22:15:15.873Z,1.11
2019-01-14T22:17:44.472Z,1.19
2019-01-14T22:20:19.385Z,1.10
2019-01-14T22:22:48.165Z,1.27
2019-01-14T22:25:16.830Z,1.28
2019-01-14T22:27:45.464Z,1.15
2019-01-14T22:30:20.202Z,1.29
2019-01-14T22:32:48.901Z,1.04
2019-01-14T22:35:17.525Z,0.98
2019-01-14T22:37:46.193Z,1.06
2019-01-14T22:40:15.440Z,1.14
2019-01-14T22:42:44.264Z,1.10
2019-01-14T22:45:13.610Z,1.18
2019-01-14T22:47:42.227Z,1.30
2019-01-14T22:50:16.404Z,1.33
2019-01-14T22:52:45.089Z,1.30
2019-01-14T22:55:13.710Z,1.13
2019-01-14T22:57:42.321Z,1.26
2019-01-14T23:00:40.102Z,1.24
2019-01-14T23:03:08.796Z,1.32
2019-01-14T23:05:37.344Z,1.19
2019-01-14T23:08:06.026Z,1.17
2019-01-14T23:10:34.572Z,1.25
2019-01-14T23:13:03.181Z,1.31
2019-01-14T23:15:31.734Z,1.21
2019-01-14T23:18:00.343Z,1.36
2019-01-14T23:20:28.897Z,1.46
2019-01-14T23:22:57.489Z,1.49
2019-01-14T23:25:26.063Z,1.58
2019-01-14T23:27:54.684Z,1.53
2019-01-14T23:30:23.247Z,1.59
2019-01-14T23:32:51.884Z,1.76
2019-01-14T23:35:20.524Z,1.67
2019-01-14T23:37:49.148Z,1.73
2019-01-14T23:40:17.724Z,1.78
2019-01-14T23:42:46.321Z,1.80
2019-01-14T23:45:14.965Z,1.89
2019-01-14T23:47:43.644Z,1.87
2019-01-14T23:50:12.389Z,1.89
2019-01-14T23:52:41.053Z,1.84
2019-01-14T23:55:09.753Z,1.95
2019-01-14T23:57:38.361Z,1.95
